createdAt,value
2023-02-16T00:01:25.473Z,99.90
2023-02-16T00:03:56.586Z,92.40
2023-02-16T00:06:25.998Z,96.60
2023-02-16T00:08:57.199Z,88.83
2023-02-16T00:11:48.976Z,103.43
2023-02-16T00:14:18.052Z,91.63
2023-02-16T00:16:47.058Z,90.47
2023-02-16T00:19:22.428Z,93.97
2023-02-16T00:21:53.475Z,102.70
2023-02-16T00:24:22.334Z,94.53
2023-02-16T00:26:51.337Z,95.23
2023-02-16T00:29:26.067Z,93.33
2023-02-16T00:31:56.014Z,91.50
2023-02-16T00:34:32.481Z,89.77
2023-02-16T00:37:03.533Z,90.73
2023-02-16T00:39:32.138Z,114.67
2023-02-16T00:42:04.113Z,94.90
2023-02-16T00:44:36.007Z,91.77
2023-02-16T00:47:16.181Z,91.03
2023-02-16T00:49:46.108Z,96.60
2023-02-16T00:52:30.933Z,98.47
2023-02-16T00:55:00.768Z,98.47
2023-02-16T00:57:35.162Z,95.67
2023-02-16T01:00:08.524Z,104.40
2023-02-16T01:02:37.719Z,104.20
2023-02-16T01:05:08.387Z,99.70
2023-02-16T01:07:54.520Z,94.67
2023-02-16T01:10:40.324Z,103.73
2023-02-16T01:13:10.300Z,103.23
2023-02-16T01:15:40.030Z,93.30
2023-02-16T01:18:09.796Z,95.67
2023-02-16T01:20:39.622Z,97.43
2023-02-16T01:23:11.092Z,93.73
2023-02-16T01:25:43.431Z,104.00
2023-02-16T01:28:20.586Z,104.23
2023-02-16T01:30:49.681Z,114.77
2023-02-16T01:33:18.518Z,96.20
2023-02-16T01:35:49.471Z,103.87
2023-02-16T01:38:21.275Z,98.67
2023-02-16T01:40:56.358Z,104.93
2023-02-16T01:43:30.012Z,104.93
2023-02-16T01:46:04.557Z,106.00
2023-02-16T01:48:33.789Z,100.70
2023-02-16T01:51:13.145Z,102.47
2023-02-16T01:53:47.198Z,110.50
2023-02-16T01:56:22.632Z,99.67
2023-02-16T01:58:55.520Z,100.93
2023-02-16T02:01:43.827Z,107.53
2023-02-16T02:04:44.381Z,108.37
2023-02-16T02:07:20.787Z,100.83
2023-02-16T02:09:58.998Z,107.10
2023-02-16T02:12:33.874Z,110.73
2023-02-16T02:15:03.075Z,90.03
2023-02-16T02:17:31.737Z,94.33
2023-02-16T02:20:10.958Z,94.80
2023-02-16T02:23:33.944Z,97.20
2023-02-16T02:26:46.961Z,95.00
2023-02-16T02:29:54.778Z,91.90
2023-02-16T02:32:34.078Z,82.87
2023-02-16T02:35:21.815Z,84.73
2023-02-16T02:37:57.575Z,86.03
2023-02-16T02:40:40.910Z,94.17
2023-02-16T02:43:17.922Z,86.37
2023-02-16T02:45:53.434Z,85.70
2023-02-16T02:48:22.254Z,85.87
2023-02-16T02:51:12.377Z,83.27
2023-02-16T02:53:46.423Z,79.43
2023-02-16T02:56:35.857Z,85.43
2023-02-16T02:59:27.062Z,73.33
2023-02-16T03:02:02.187Z,86.30
2023-02-16T03:04:34.612Z,76.53
2023-02-16T03:07:05.319Z,74.17
2023-02-16T03:09:34.329Z,75.53
2023-02-16T03:12:29.214Z,74.33
2023-02-16T03:15:02.508Z,73.27
2023-02-16T03:17:56.938Z,82.03
2023-02-16T03:20:43.504Z,76.47
2023-02-16T03:23:30.697Z,75.40
2023-02-16T03:26:17.126Z,67.50
2023-02-16T03:29:03.909Z,66.10
2023-02-16T03:31:35.701Z,80.93
2023-02-16T03:34:06.807Z,66.00
2023-02-16T03:36:38.222Z,63.00
2023-02-16T03:39:07.557Z,62.13
2023-02-16T03:41:41.042Z,55.80
2023-02-16T03:44:09.566Z,60.87
2023-02-16T03:46:38.303Z,67.60
2023-02-16T03:49:08.577Z,65.30
2023-02-16T03:51:37.369Z,65.60
2023-02-16T03:54:05.848Z,59.83
2023-02-16T03:56:34.704Z,62.27
2023-02-16T03:59:03.412Z,54.13
2023-02-16T04:01:32.225Z,58.93
2023-02-16T04:04:00.743Z,56.63
2023-02-16T04:06:30.925Z,59.27
2023-02-16T04:08:59.522Z,53.67
2023-02-16T04:11:45.412Z,53.87
2023-02-16T04:14:14.154Z,55.50
2023-02-16T04:16:46.147Z,57.80
2023-02-16T04:19:14.738Z,53.70
2023-02-16T04:21:44.829Z,65.80
2023-02-16T04:24:13.324Z,57.63
2023-02-16T04:26:42.135Z,63.53
2023-02-16T04:29:10.569Z,60.50
2023-02-16T04:31:39.528Z,56.77
2023-02-16T04:34:08.381Z,56.47
2023-02-16T04:36:37.140Z,63.57
2023-02-16T04:39:07.140Z,55.77
2023-02-16T04:41:35.911Z,63.10
2023-02-16T04:44:04.572Z,55.90
2023-02-16T04:46:33.299Z,56.07
2023-02-16T04:49:01.834Z,55.37
2023-02-16T04:51:30.638Z,64.17
2023-02-16T04:53:59.097Z,65.70
2023-02-16T04:56:29.370Z,58.70
2023-02-16T04:58:58.258Z,60.30
2023-02-16T05:01:30.026Z,74.80
2023-02-16T05:03:58.928Z,53.47
2023-02-16T05:06:27.648Z,56.20
2023-02-16T05:08:56.160Z,57.07
2023-02-16T05:11:42.329Z,63.97
2023-02-16T05:14:37.613Z,58.30
2023-02-16T05:17:06.867Z,46.00
2023-02-16T05:19:35.586Z,61.67
2023-02-16T05:22:04.698Z,54.30
2023-02-16T05:24:34.651Z,53.57
2023-02-16T05:27:03.938Z,54.90
2023-02-16T05:29:34.231Z,51.23
2023-02-16T05:32:04.851Z,52.83
2023-02-16T05:34:33.642Z,58.60
2023-02-16T05:37:02.473Z,64.10
2023-02-16T05:39:31.183Z,57.47
2023-02-16T05:42:00.178Z,59.30
2023-02-16T05:44:29.048Z,57.77
2023-02-16T05:46:59.304Z,63.67
2023-02-16T05:49:27.877Z,56.93
2023-02-16T05:51:57.031Z,54.30
2023-02-16T05:54:25.599Z,57.63
2023-02-16T05:56:54.701Z,51.53
2023-02-16T05:59:23.304Z,49.77
2023-02-16T06:01:52.678Z,55.33
2023-02-16T06:04:22.887Z,49.63
2023-02-16T06:06:51.720Z,58.80
2023-02-16T06:09:20.143Z,52.77
2023-02-16T06:11:48.897Z,53.90
2023-02-16T06:14:19.572Z,49.03
2023-02-16T06:16:51.464Z,51.20
2023-02-16T06:19:21.905Z,52.53
2023-02-16T06:21:50.730Z,54.47
2023-02-16T06:24:19.535Z,52.07
2023-02-16T06:26:48.283Z,48.60
2023-02-16T06:29:16.787Z,52.27
2023-02-16T06:31:45.632Z,54.47
2023-02-16T06:34:14.357Z,55.33
2023-02-16T06:36:44.450Z,62.37
2023-02-16T06:39:12.946Z,66.30
2023-02-16T06:41:42.122Z,58.90
2023-02-16T06:44:12.446Z,66.23
2023-02-16T06:46:41.940Z,64.17
2023-02-16T06:49:13.584Z,55.83
2023-02-16T06:51:42.457Z,62.17
2023-02-16T06:54:12.855Z,67.53
2023-02-16T06:56:42.053Z,58.10
2023-02-16T06:59:12.444Z,50.37
2023-02-16T07:01:45.446Z,59.73
2023-02-16T07:04:14.219Z,62.27
2023-02-16T07:06:42.993Z,52.30
2023-02-16T07:09:13.111Z,52.57
2023-02-16T07:11:42.102Z,59.47
2023-02-16T07:14:10.639Z,61.73
2023-02-16T07:16:39.449Z,61.57
2023-02-16T07:19:08.015Z,63.30
2023-02-16T07:21:36.775Z,69.77
2023-02-16T07:24:05.826Z,65.93
2023-02-16T07:26:38.679Z,69.93
2023-02-16T07:29:07.176Z,66.30
2023-02-16T07:31:36.004Z,66.77
2023-02-16T07:34:04.508Z,56.70
2023-02-16T07:36:33.257Z,58.63
2023-02-16T07:39:01.723Z,56.40
2023-02-16T07:41:30.712Z,56.23
2023-02-16T07:44:03.021Z,62.00
2023-02-16T07:46:33.359Z,56.33
2023-02-16T07:49:02.962Z,52.37
2023-02-16T07:51:33.229Z,55.10
2023-02-16T07:54:02.147Z,56.30
2023-02-16T07:56:33.655Z,50.27
2023-02-16T07:59:04.578Z,55.33
2023-02-16T08:01:34.288Z,52.77
2023-02-16T08:04:02.847Z,55.33
2023-02-16T08:06:31.546Z,55.67
2023-02-16T08:09:00.031Z,50.50
2023-02-16T08:11:28.768Z,54.10
2023-02-16T08:13:59.458Z,50.93
2023-02-16T08:16:30.740Z,52.83
2023-02-16T08:19:01.453Z,55.37
2023-02-16T08:21:32.253Z,41.50
2023-02-16T08:24:02.612Z,53.50
2023-02-16T08:26:34.570Z,50.57
2023-02-16T08:29:03.085Z,50.23
2023-02-16T08:31:36.734Z,39.23
2023-02-16T08:34:06.231Z,47.33
2023-02-16T08:36:36.820Z,51.47
2023-02-16T08:39:07.188Z,57.30
2023-02-16T08:41:38.058Z,47.23
2023-02-16T08:44:08.814Z,46.47
2023-02-16T08:46:41.117Z,41.30
2023-02-16T08:49:10.340Z,48.20
2023-02-16T08:51:42.397Z,47.53
2023-02-16T08:54:16.911Z,67.27
2023-02-16T08:56:47.871Z,48.67
2023-02-16T08:59:17.889Z,44.67
2023-02-16T09:01:48.485Z,46.77
2023-02-16T09:04:17.899Z,46.13
2023-02-16T09:06:48.396Z,52.93
2023-02-16T09:09:17.921Z,50.50
2023-02-16T09:11:47.086Z,51.70
2023-02-16T09:14:16.273Z,50.33
2023-02-16T09:16:46.543Z,43.77
2023-02-16T09:19:18.936Z,52.57
2023-02-16T09:21:48.658Z,42.30
2023-02-16T09:24:17.198Z,43.83
2023-02-16T09:26:46.176Z,46.40
2023-02-16T09:29:15.411Z,45.97
2023-02-16T09:31:44.989Z,44.00
2023-02-16T09:34:20.915Z,47.67
2023-02-16T09:36:50.128Z,43.93
2023-02-16T09:39:19.177Z,45.70
2023-02-16T09:42:03.232Z,45.67
2023-02-16T09:44:43.363Z,52.43
2023-02-16T09:47:22.062Z,52.10
2023-02-16T09:49:53.876Z,42.07
2023-02-16T09:52:29.544Z,47.37
2023-02-16T09:55:00.565Z,48.17
2023-02-16T09:57:42.640Z,53.87
2023-02-16T10:00:23.322Z,41.80
2023-02-16T10:02:57.379Z,157.53
2023-02-16T10:05:33.549Z,150.17
2023-02-16T10:08:07.588Z,162.93
2023-02-16T10:10:45.280Z,155.17
2023-02-16T10:13:23.824Z,152.53
2023-02-16T10:15:54.241Z,151.47
2023-02-16T10:18:29.448Z,160.93
2023-02-16T10:21:03.674Z,154.77
2023-02-16T10:23:46.252Z,161.73
2023-02-16T10:26:24.560Z,156.67
2023-02-16T10:28:56.190Z,151.67
2023-02-16T10:31:31.226Z,158.77
2023-02-16T10:34:17.788Z,157.03
2023-02-16T10:37:24.861Z,157.93
2023-02-16T10:40:03.919Z,155.87
2023-02-16T10:42:38.456Z,164.37
2023-02-16T10:45:21.566Z,151.23
2023-02-16T10:47:50.045Z,150.83
2023-02-16T10:50:25.417Z,155.70
2023-02-16T10:52:59.980Z,155.23
2023-02-16T10:55:28.866Z,161.53
2023-02-16T10:58:00.149Z,159.13
2023-02-16T11:00:44.227Z,160.03
2023-02-16T11:03:15.509Z,159.40
2023-02-16T11:05:44.827Z,169.38
2023-02-16T11:08:14.658Z,41.83
2023-02-16T11:10:49.081Z,97.43
2023-02-16T11:13:33.948Z,113.93
2023-02-16T11:16:07.068Z,157.77
2023-02-16T11:18:39.154Z,176.90
2023-02-16T11:21:09.172Z,159.17
2023-02-16T11:23:40.616Z,104.30
2023-02-16T11:26:25.040Z,44.13
2023-02-16T11:28:54.322Z,42.57
2023-02-16T11:31:28.714Z,41.03
2023-02-16T11:34:00.309Z,47.73
2023-02-16T11:36:33.862Z,46.13
2023-02-16T11:39:08.840Z,54.90
2023-02-16T11:41:39.103Z,42.47
2023-02-16T11:44:25.741Z,50.30
2023-02-16T11:46:56.538Z,47.50
2023-02-16T11:49:33.408Z,42.70
2023-02-16T11:52:18.492Z,45.70
2023-02-16T11:54:52.021Z,51.87
2023-02-16T11:57:26.980Z,46.40
2023-02-16T11:59:56.932Z,47.47
2023-02-16T12:02:58.898Z,47.23
2023-02-16T12:05:36.764Z,46.90
2023-02-16T12:08:32.452Z,40.60
2023-02-16T12:11:25.399Z,42.73
2023-02-16T12:14:05.243Z,55.53
2023-02-16T12:16:42.274Z,47.53
2023-02-16T12:19:24.218Z,41.27
2023-02-16T12:21:56.046Z,49.87
2023-02-16T12:24:41.480Z,55.60
2023-02-16T12:27:19.576Z,41.13
2023-02-16T12:30:01.984Z,46.90
2023-02-16T12:32:50.344Z,53.00
2023-02-16T12:35:35.029Z,50.03
2023-02-16T12:38:12.976Z,50.03
2023-02-16T12:40:52.027Z,64.00
2023-02-16T12:43:35.856Z,61.53
2023-02-16T12:46:10.514Z,72.83
2023-02-16T12:48:46.740Z,56.23
2023-02-16T12:51:20.286Z,64.63
2023-02-16T12:53:55.080Z,62.50
2023-02-16T12:56:28.109Z,59.93
2023-02-16T12:59:14.270Z,70.90
2023-02-16T13:01:45.203Z,75.83
2023-02-16T13:04:23.153Z,56.97
2023-02-16T13:06:59.004Z,71.60
2023-02-16T13:09:38.563Z,60.67
2023-02-16T13:12:15.957Z,57.87
2023-02-16T13:14:54.032Z,58.30
2023-02-16T13:17:32.019Z,54.30
2023-02-16T13:20:02.599Z,58.07
2023-02-16T13:23:19.417Z,61.67
2023-02-16T13:26:11.122Z,59.53
2023-02-16T13:29:02.191Z,65.90
2023-02-16T13:31:54.536Z,62.23
2023-02-16T13:35:02.506Z,58.83
2023-02-16T13:37:51.334Z,57.47
2023-02-16T13:40:59.074Z,63.43
2023-02-16T13:43:35.070Z,60.20
2023-02-16T13:46:09.052Z,57.63
2023-02-16T13:48:47.264Z,57.50
2023-02-16T13:51:20.603Z,71.50
2023-02-16T13:53:55.486Z,58.63
2023-02-16T13:56:35.185Z,63.77
2023-02-16T13:59:37.310Z,64.17
2023-02-16T14:02:13.238Z,71.70
2023-02-16T14:05:23.602Z,56.00
2023-02-16T14:08:11.242Z,58.20
2023-02-16T14:11:19.149Z,50.07
2023-02-16T14:13:50.824Z,57.00
2023-02-16T14:16:32.631Z,54.47
2023-02-16T14:19:04.842Z,70.37
2023-02-16T14:21:41.561Z,56.10
2023-02-16T14:24:14.697Z,65.40
2023-02-16T14:27:01.078Z,65.73
2023-02-16T14:29:32.973Z,66.97
2023-02-16T14:32:06.095Z,66.17
2023-02-16T14:34:40.494Z,56.47
2023-02-16T14:37:34.774Z,58.23
2023-02-16T14:40:21.233Z,62.73
2023-02-16T14:42:59.602Z,51.03
2023-02-16T14:46:20.378Z,57.63
2023-02-16T14:49:23.811Z,59.90
2023-02-16T14:52:26.425Z,51.77
2023-02-16T14:55:30.525Z,53.97
2023-02-16T14:58:07.312Z,52.67
2023-02-16T15:00:45.916Z,59.50
2023-02-16T15:03:18.676Z,55.30
2023-02-16T15:05:56.248Z,54.20
2023-02-16T15:08:35.217Z,61.50
2023-02-16T15:11:15.701Z,53.10
2023-02-16T15:13:46.385Z,59.87
2023-02-16T15:16:18.150Z,72.40
2023-02-16T15:18:50.075Z,61.30
2023-02-16T15:21:20.759Z,60.80
2023-02-16T15:23:52.516Z,57.07
2023-02-16T15:26:24.445Z,67.53
2023-02-16T15:28:56.832Z,75.23
2023-02-16T15:31:33.379Z,65.50
2023-02-16T15:34:05.804Z,62.07
2023-02-16T15:36:36.660Z,65.20
2023-02-16T15:39:07.583Z,69.83
2023-02-16T15:41:38.474Z,62.47
2023-02-16T15:44:28.355Z,58.83
2023-02-16T15:47:08.073Z,67.37
2023-02-16T15:49:38.988Z,67.33
2023-02-16T15:52:12.961Z,60.40
2023-02-16T15:54:42.440Z,67.60
2023-02-16T15:57:19.927Z,70.47
2023-02-16T15:59:51.846Z,73.57
2023-02-16T16:02:22.835Z,66.50
2023-02-16T16:04:55.526Z,77.33
2023-02-16T16:07:28.040Z,75.43
2023-02-16T16:09:58.036Z,67.07
2023-02-16T16:12:27.431Z,232.47
2023-02-16T16:14:59.641Z,224.73
2023-02-16T16:17:30.301Z,214.23
2023-02-16T16:20:19.012Z,211.37
2023-02-16T16:22:47.642Z,201.63
2023-02-16T16:25:32.676Z,240.87
2023-02-16T16:28:01.930Z,200.43
2023-02-16T16:30:34.724Z,211.23
2023-02-16T16:33:06.303Z,214.17
2023-02-16T16:35:38.422Z,204.10
2023-02-16T16:38:10.395Z,214.70
2023-02-16T16:40:41.025Z,213.70
2023-02-16T16:43:21.223Z,204.00
2023-02-16T16:45:56.179Z,194.43
2023-02-16T16:48:30.128Z,207.70
2023-02-16T16:51:11.039Z,206.63
2023-02-16T16:53:52.891Z,189.33
2023-02-16T16:56:22.998Z,184.10
2023-02-16T16:58:52.332Z,172.77
2023-02-16T17:01:22.991Z,173.77
2023-02-16T17:03:51.894Z,163.23
2023-02-16T17:06:21.332Z,179.60
2023-02-16T17:08:49.870Z,184.63
2023-02-16T17:11:25.423Z,186.60
2023-02-16T17:13:55.591Z,185.10
2023-02-16T17:16:30.526Z,173.23
2023-02-16T17:18:59.085Z,172.33
2023-02-16T17:21:27.854Z,166.93
2023-02-16T17:23:56.470Z,167.50
2023-02-16T17:26:25.521Z,187.67
2023-02-16T17:28:53.991Z,191.13
2023-02-16T17:34:06.590Z,177.30
2023-02-16T17:36:36.017Z,182.17
2023-02-16T17:39:04.545Z,168.03
2023-02-16T17:41:33.347Z,168.93
2023-02-16T17:44:04.021Z,162.20
2023-02-16T17:46:33.456Z,171.37
2023-02-16T17:49:01.996Z,173.63
2023-02-16T17:51:36.206Z,184.97
2023-02-16T17:54:06.424Z,171.90
2023-02-16T17:56:36.634Z,161.90
2023-02-16T17:59:05.098Z,175.07
2023-02-16T18:01:34.888Z,173.13
2023-02-16T18:04:04.186Z,167.53
2023-02-16T18:06:34.460Z,159.07
2023-02-16T18:09:03.200Z,162.73
2023-02-16T18:11:32.030Z,160.33
2023-02-16T18:14:00.564Z,163.13
2023-02-16T18:16:29.367Z,167.87
2023-02-16T18:18:58.344Z,169.47
2023-02-16T18:21:27.390Z,150.07
2023-02-16T18:23:57.482Z,158.43
2023-02-16T18:26:28.443Z,152.30
2023-02-16T18:28:57.042Z,138.50
2023-02-16T18:31:26.262Z,159.20
2023-02-16T18:33:54.902Z,160.63
2023-02-16T18:36:23.836Z,153.10
2023-02-16T18:38:52.523Z,160.33
2023-02-16T18:41:22.790Z,160.53
2023-02-16T18:43:51.755Z,151.07
2023-02-16T18:46:20.624Z,148.10
2023-02-16T18:48:49.768Z,142.60
2023-02-16T18:51:18.825Z,129.73
2023-02-16T18:53:47.427Z,137.83
2023-02-16T18:56:16.471Z,135.10
2023-02-16T18:58:46.688Z,129.47
2023-02-16T19:01:17.199Z,122.37
2023-02-16T19:03:46.521Z,145.63
2023-02-16T19:06:15.422Z,127.93
2023-02-16T19:08:43.913Z,127.53
2023-02-16T19:11:12.739Z,122.80
2023-02-16T19:13:41.312Z,139.60
2023-02-16T19:16:11.625Z,124.13
2023-02-16T19:18:40.167Z,117.17
2023-02-16T19:21:09.958Z,123.33
2023-02-16T19:23:38.874Z,128.73
2023-02-16T19:26:08.943Z,126.70
2023-02-16T19:28:38.023Z,127.80
2023-02-16T19:31:09.983Z,129.27
2023-02-16T19:33:40.079Z,122.47
2023-02-16T19:36:11.521Z,124.33
2023-02-16T19:38:40.967Z,124.03
2023-02-16T19:41:13.514Z,144.90
2023-02-16T19:43:42.863Z,126.37
2023-02-16T19:46:12.208Z,113.43
2023-02-16T19:48:42.887Z,119.57
2023-02-16T19:51:12.129Z,124.10
2023-02-16T19:53:42.090Z,120.77
2023-02-16T19:56:14.234Z,119.40
2023-02-16T19:58:42.952Z,113.50
2023-02-16T20:01:14.696Z,121.80
2023-02-16T20:03:44.827Z,120.10
2023-02-16T20:06:16.087Z,126.83
2023-02-16T20:08:45.260Z,113.23
2023-02-16T20:11:14.804Z,117.80
2023-02-16T20:13:44.025Z,122.40
2023-02-16T20:16:14.921Z,120.83
2023-02-16T20:18:45.453Z,120.70
2023-02-16T20:21:16.930Z,118.73
2023-02-16T20:23:46.931Z,106.37
2023-02-16T20:26:18.708Z,122.03
2023-02-16T20:28:48.196Z,109.37
2023-02-16T20:31:19.532Z,163.40
2023-02-16T20:33:50.175Z,108.07
2023-02-16T20:36:19.117Z,100.37
2023-02-16T20:38:47.869Z,112.07
2023-02-16T20:41:17.198Z,96.43
2023-02-16T20:43:45.928Z,95.37
2023-02-16T20:46:16.324Z,101.73
2023-02-16T20:48:45.535Z,101.23
2023-02-16T20:51:15.837Z,92.50
2023-02-16T20:53:44.424Z,99.83
2023-02-16T20:56:16.245Z,104.40
2023-02-16T20:58:46.280Z,108.27
2023-02-16T21:01:17.252Z,98.00
2023-02-16T21:03:45.907Z,95.80
2023-02-16T21:06:16.565Z,113.50
2023-02-16T21:08:45.378Z,102.03
2023-02-16T21:11:14.662Z,106.63
2023-02-16T21:13:43.638Z,99.63
2023-02-16T21:16:14.510Z,96.60
2023-02-16T21:18:43.524Z,94.20
2023-02-16T21:21:15.631Z,83.77
2023-02-16T21:23:48.068Z,90.27
2023-02-16T21:26:18.219Z,82.97
2023-02-16T21:28:46.986Z,87.50
2023-02-16T21:31:18.668Z,96.83
2023-02-16T21:33:48.860Z,108.23
2023-02-16T21:36:20.038Z,98.40
2023-02-16T21:38:50.395Z,91.43
2023-02-16T21:41:26.122Z,88.60
2023-02-16T21:43:57.477Z,85.53
2023-02-16T21:46:27.489Z,98.70
2023-02-16T21:48:55.250Z,93.23
2023-02-16T21:51:29.038Z,80.83
2023-02-16T21:53:59.506Z,89.80
2023-02-16T21:56:34.479Z,91.97
2023-02-16T21:59:03.500Z,84.80
2023-02-16T22:01:33.810Z,78.67
2023-02-16T22:04:03.101Z,87.43
2023-02-16T22:06:35.399Z,89.10
2023-02-16T22:09:09.826Z,94.23
2023-02-16T22:11:39.520Z,85.50
2023-02-16T22:14:08.264Z,76.47
2023-02-16T22:16:38.583Z,77.13
2023-02-16T22:19:08.942Z,76.77
2023-02-16T22:21:42.076Z,85.60
2023-02-16T22:24:14.823Z,94.30
2023-02-16T22:26:44.423Z,81.57
2023-02-16T22:29:13.814Z,78.40
2023-02-16T22:31:45.803Z,87.23
2023-02-16T22:34:15.995Z,74.60
2023-02-16T22:36:45.889Z,74.80
2023-02-16T22:39:17.352Z,74.33
2023-02-16T22:41:46.243Z,84.60
2023-02-16T22:44:15.665Z,75.20
2023-02-16T22:46:44.600Z,89.87
2023-02-16T22:49:13.059Z,74.10
2023-02-16T22:51:41.859Z,85.33
2023-02-16T22:54:10.420Z,83.40
2023-02-16T22:56:40.607Z,78.77
2023-02-16T22:59:10.669Z,75.97
2023-02-16T23:01:39.960Z,71.37
2023-02-16T23:04:08.623Z,75.93
2023-02-16T23:06:38.792Z,83.40
2023-02-16T23:09:09.639Z,87.97
2023-02-16T23:11:38.410Z,83.87
2023-02-16T23:14:16.189Z,77.90
2023-02-16T23:16:45.739Z,78.93
2023-02-16T23:19:15.786Z,90.40
2023-02-16T23:21:45.088Z,81.03
2023-02-16T23:24:16.035Z,69.47
2023-02-16T23:26:45.097Z,74.70
2023-02-16T23:29:15.095Z,83.17
2023-02-16T23:31:46.682Z,75.40
2023-02-16T23:34:16.006Z,75.47
2023-02-16T23:36:45.133Z,75.13
2023-02-16T23:39:15.929Z,79.90
2023-02-16T23:41:45.250Z,75.93
2023-02-16T23:44:16.020Z,81.23
2023-02-16T23:46:44.776Z,84.67
2023-02-16T23:49:13.477Z,74.47
2023-02-16T23:51:42.296Z,70.70
2023-02-16T23:54:11.565Z,71.30
2023-02-16T23:56:41.280Z,82.27
2023-02-16T23:59:09.721Z,86.43
